Flight Track Log - Related Links

Times and Time Zones

All times are in EDT time to prevent confusion due to time zone crossing. See the CNS55 flight status page for this flight to view local times or setup timezone preferences in your user account.


Time Position Orientation Groundspeed Altitude Reporting Facility
EDT Latitude Longitude Course Direction KTS MPH feet Rate Location/Type
Mon 10:07:00 PM 41.5418 -70.2876 330° Northwest  Level FlightAware Approximate
Mon 10:08:00 PM 41.5902 -70.3251 330° Northwest  Level FlightAware Approximate
Mon 10:09:00 PM 41.6386 -70.3627 330° Northwest  Level FlightAware Approximate
Mon 10:10:00 PM 41.6870 -70.4003 330° Northwest  Level FlightAware Approximate
Mon 10:11:00 PM 41.7355 -70.4380 330° Northwest  Level FlightAware Approximate
Mon 10:12:00 PM 41.7838 -70.4758 330° Northwest  Level FlightAware Approximate
Mon 10:13:00 PM 41.8322 -70.5136 330° Northwest  Level FlightAware Approximate
Mon 10:13:03 PM 41.7667 -70.6833 300° West 219 252 6,500  Level KA90
Mon 10:14:00 PM 41.8806 -70.5515 330° Northwest  Level FlightAware Approximate
Mon 10:14:03 PM 41.8167 -70.7333 323° Northwest 218 251 6,500  Level KA90
Mon 10:15:00 PM 41.9167 -70.6057 300° West  Level FlightAware Approximate
Mon 10:15:03 PM 41.8500 -70.7833 312° West 220 253 6,500  Level KA90
Mon 10:15:57 PM 41.9000 -70.8333 323° Northwest 221 254 6,500  Level KA90
Mon 10:16:00 PM 41.9447 -70.6709 300° West  Level FlightAware Approximate
Mon 10:16:57 PM 41.9500 -70.9000 315° West 221 254 6,500  Level KA90
Mon 10:17:00 PM 41.9802 -70.7287 312° West  Level FlightAware Approximate
Mon 10:18:00 PM 42.0090 -70.7932 300° West  Level FlightAware Approximate
Mon 10:18:03 PM 42.0000 -70.9500 323° Northwest 217 250 5,900  Level KA90
Mon 10:19:03 PM 42.0333 -71.0000 312° West 215 247 4,800 -1,100 Descending KA90
Mon 10:21:00 PM 42.1179 -71.0929 304° West  Level Estimated
Mon 10:28:00 PM 42.1833 -71.1667 304° West  Level FlightAware Approximate
Mon 10:29:00 PM 42.1905 -71.1729 304° West  Level Estimated
Mon 10:30:00 PM 42.1905 -71.1729 304° West  Level Estimated
Mon 10:31:00 PM 42.1905 -71.1729 304° West  Level Estimated
Mon 10:32:00 PM 42.1905 -71.1729 304° West  Level Estimated
Mon 10:33:00 PM 42.1905 -71.1729 304° West  Level Estimated
Mon 10:34:00 PM 42.1905 -71.1729 304° West  Level Estimated
Mon 10:35:00 PM 42.1905 -71.1729 304° West  Level Estimated
Mon 10:36:00 PM 42.1905 -71.1729 304° West  Level Estimated
Mon 10:37:00 PM 42.1905 -71.1729 304° West  Level Estimated
Mon 10:38:00 PM 42.1905 -71.1729 304° West  Level Estimated
Mon 10:39:00 PM 42.1905 -71.1729 304° West  Level Estimated

Login

Don't have an account? Register now (free) for customized features, flight alerts, and more!